sensor_id;sensor_type;location;lat;lon;timestamp;P1;durP1;ratioP1;P2;durP2;ratioP2
69183;SDS011;56291;53.960;27.550;2023-08-01T02:00:56;4.15;;;2.85;;
69183;SDS011;56291;53.960;27.550;2023-08-01T02:03:22;4.47;;;3.17;;
69183;SDS011;56291;53.960;27.550;2023-08-01T02:05:48;3.17;;;2.80;;
69183;SDS011;56291;53.960;27.550;2023-08-01T02:08:14;4.95;;;3.10;;
69183;SDS011;56291;53.960;27.550;2023-08-01T02:10:41;4.53;;;2.90;;
69183;SDS011;56291;53.960;27.550;2023-08-01T02:13:07;5.47;;;2.83;;
69183;SDS011;56291;53.960;27.550;2023-08-01T02:15:33;5.65;;;3.03;;
69183;SDS011;56291;53.960;27.550;2023-08-01T02:18:00;3.38;;;2.75;;
69183;SDS011;56291;53.960;27.550;2023-08-01T02:20:26;3.40;;;2.92;;
69183;SDS011;56291;53.960;27.550;2023-08-01T02:22:54;6.30;;;3.30;;
69183;SDS011;56291;53.960;27.550;2023-08-01T02:25:20;4.82;;;3.30;;
69183;SDS011;56291;53.960;27.550;2023-08-01T02:27:46;3.90;;;2.80;;
69183;SDS011;56291;53.960;27.550;2023-08-01T02:30:12;8.93;;;3.08;;
69183;SDS011;56291;53.960;27.550;2023-08-01T02:32:38;4.80;;;3.05;;
69183;SDS011;56291;53.960;27.550;2023-08-01T02:35:05;4.68;;;2.88;;
69183;SDS011;56291;53.960;27.550;2023-08-01T02:37:31;5.20;;;2.80;;
69183;SDS011;56291;53.960;27.550;2023-08-01T02:39:57;4.60;;;3.03;;
69183;SDS011;56291;53.960;27.550;2023-08-01T02:42:24;4.63;;;3.00;;
69183;SDS011;56291;53.960;27.550;2023-08-01T02:44:50;3.65;;;3.03;;
69183;SDS011;56291;53.960;27.550;2023-08-01T02:47:16;6.05;;;3.00;;
69183;SDS011;56291;53.960;27.550;2023-08-01T02:49:43;5.13;;;3.22;;
69183;SDS011;56291;53.960;27.550;2023-08-01T02:52:09;7.07;;;3.58;;
69183;SDS011;56291;53.960;27.550;2023-08-01T02:54:35;7.70;;;3.90;;
69183;SDS011;56291;53.960;27.550;2023-08-01T02:57:01;7.65;;;3.42;;
69183;SDS011;56291;53.960;27.550;2023-08-01T02:59:28;4.53;;;3.28;;
69183;SDS011;56291;53.960;27.550;2023-08-01T03:01:54;4.05;;;3.50;;
69183;SDS011;56291;53.960;27.550;2023-08-01T03:04:20;4.30;;;3.00;;
69183;SDS011;56291;53.960;27.550;2023-08-01T03:06:46;7.45;;;4.47;;
69183;SDS011;56291;53.960;27.550;2023-08-01T03:09:12;4.03;;;3.40;;
69183;SDS011;56291;53.960;27.550;2023-08-01T03:11:39;4.78;;;3.47;;
69183;SDS011;56291;53.960;27.550;2023-08-01T03:14:05;6.32;;;3.90;;
69183;SDS011;56291;53.960;27.550;2023-08-01T03:16:31;4.95;;;3.38;;
69183;SDS011;56291;53.960;27.550;2023-08-01T03:18:58;5.40;;;4.00;;
69183;SDS011;56291;53.960;27.550;2023-08-01T03:21:31;6.38;;;4.80;;
69183;SDS011;56291;53.960;27.550;2023-08-01T03:23:57;9.32;;;3.13;;
69183;SDS011;56291;53.960;27.550;2023-08-01T03:26:23;5.75;;;3.40;;
69183;SDS011;56291;53.960;27.550;2023-08-01T03:28:50;7.15;;;3.75;;
69183;SDS011;56291;53.960;27.550;2023-08-01T03:31:16;4.70;;;3.35;;
69183;SDS011;56291;53.960;27.550;2023-08-01T03:33:42;8.35;;;3.83;;
69183;SDS011;56291;53.960;27.550;2023-08-01T03:36:08;4.30;;;3.03;;
69183;SDS011;56291;53.960;27.550;2023-08-01T03:38:34;8.00;;;3.30;;
69183;SDS011;56291;53.960;27.550;2023-08-01T03:41:01;4.10;;;3.22;;
69183;SDS011;56291;53.960;27.550;2023-08-01T03:43:29;5.05;;;3.80;;
69183;SDS011;56291;53.960;27.550;2023-08-01T03:45:55;5.28;;;3.17;;
69183;SDS011;56291;53.960;27.550;2023-08-01T03:48:21;7.43;;;3.45;;
69183;SDS011;56291;53.960;27.550;2023-08-01T03:50:47;3.28;;;2.80;;
69183;SDS011;56291;53.960;27.550;2023-08-01T03:53:14;4.78;;;3.15;;
69183;SDS011;56291;53.960;27.550;2023-08-01T03:55:40;5.03;;;3.72;;
69183;SDS011;56291;53.960;27.550;2023-08-01T03:58:07;9.73;;;3.90;;
69183;SDS011;56291;53.960;27.550;2023-08-01T04:00:33;6.07;;;3.63;;
69183;SDS011;56291;53.960;27.550;2023-08-01T04:03:00;7.05;;;3.42;;
69183;SDS011;56291;53.960;27.550;2023-08-01T04:05:27;5.40;;;3.58;;
69183;SDS011;56291;53.960;27.550;2023-08-01T04:07:53;4.85;;;3.38;;
69183;SDS011;56291;53.960;27.550;2023-08-01T04:10:23;7.72;;;3.90;;
69183;SDS011;56291;53.960;27.550;2023-08-01T04:12:49;4.78;;;3.28;;
69183;SDS011;56291;53.960;27.550;2023-08-01T04:15:15;4.97;;;3.15;;
69183;SDS011;56291;53.960;27.550;2023-08-01T04:17:42;4.85;;;3.47;;
69183;SDS011;56291;53.960;27.550;2023-08-01T04:20:08;5.35;;;3.75;;
69183;SDS011;56291;53.960;27.550;2023-08-01T04:22:35;5.15;;;4.10;;
69183;SDS011;56291;53.960;27.550;2023-08-01T04:25:01;7.10;;;3.85;;
69183;SDS011;56291;53.960;27.550;2023-08-01T04:27:28;4.80;;;3.63;;
69183;SDS011;56291;53.960;27.550;2023-08-01T04:29:57;4.82;;;3.85;;
69183;SDS011;56291;53.960;27.550;2023-08-01T04:32:23;6.22;;;3.90;;
69183;SDS011;56291;53.960;27.550;2023-08-01T04:34:49;5.03;;;4.05;;
69183;SDS011;56291;53.960;27.550;2023-08-01T04:37:16;4.65;;;3.40;;
69183;SDS011;56291;53.960;27.550;2023-08-01T04:39:45;5.47;;;3.88;;
69183;SDS011;56291;53.960;27.550;2023-08-01T04:42:12;6.22;;;3.38;;
69183;SDS011;56291;53.960;27.550;2023-08-01T04:44:38;9.02;;;3.42;;
69183;SDS011;56291;53.960;27.550;2023-08-01T04:47:05;7.05;;;4.80;;
69183;SDS011;56291;53.960;27.550;2023-08-01T04:49:31;6.93;;;4.38;;
69183;SDS011;56291;53.960;27.550;2023-08-01T04:51:57;7.90;;;3.85;;
69183;SDS011;56291;53.960;27.550;2023-08-01T04:54:25;6.18;;;3.88;;
69183;SDS011;56291;53.960;27.550;2023-08-01T04:56:51;5.93;;;3.90;;
69183;SDS011;56291;53.960;27.550;2023-08-01T04:59:17;5.20;;;3.85;;
69183;SDS011;56291;53.960;27.550;2023-08-01T05:01:44;9.60;;;3.90;;
69183;SDS011;56291;53.960;27.550;2023-08-01T05:04:10;6.85;;;3.42;;
69183;SDS011;56291;53.960;27.550;2023-08-01T05:06:37;6.13;;;3.70;;
69183;SDS011;56291;53.960;27.550;2023-08-01T05:09:03;6.13;;;3.78;;
69183;SDS011;56291;53.960;27.550;2023-08-01T05:11:29;10.93;;;3.65;;
69183;SDS011;56291;53.960;27.550;2023-08-01T05:13:55;7.20;;;3.45;;
69183;SDS011;56291;53.960;27.550;2023-08-01T05:16:22;5.03;;;3.40;;
69183;SDS011;56291;53.960;27.550;2023-08-01T05:18:48;6.55;;;3.50;;
69183;SDS011;56291;53.960;27.550;2023-08-01T05:21:14;7.07;;;3.47;;
69183;SDS011;56291;53.960;27.550;2023-08-01T05:23:40;4.80;;;3.33;;
69183;SDS011;56291;53.960;27.550;2023-08-01T05:26:07;5.72;;;3.22;;
69183;SDS011;56291;53.960;27.550;2023-08-01T05:28:33;5.50;;;3.08;;
69183;SDS011;56291;53.960;27.550;2023-08-01T05:31:00;5.88;;;3.25;;
69183;SDS011;56291;53.960;27.550;2023-08-01T05:33:26;5.03;;;3.10;;
69183;SDS011;56291;53.960;27.550;2023-08-01T05:35:53;4.75;;;2.83;;
69183;SDS011;56291;53.960;27.550;2023-08-01T05:38:19;6.85;;;3.30;;
69183;SDS011;56291;53.960;27.550;2023-08-01T05:40:45;8.07;;;4.00;;
69183;SDS011;56291;53.960;27.550;2023-08-01T05:43:11;5.18;;;3.40;;
69183;SDS011;56291;53.960;27.550;2023-08-01T05:45:38;6.63;;;4.18;;
69183;SDS011;56291;53.960;27.550;2023-08-01T05:48:04;6.72;;;3.15;;
69183;SDS011;56291;53.960;27.550;2023-08-01T05:50:30;8.05;;;4.10;;
69183;SDS011;56291;53.960;27.550;2023-08-01T05:52:56;5.07;;;3.38;;
69183;SDS011;56291;53.960;27.550;2023-08-01T05:55:23;6.93;;;3.15;;
69183;SDS011;56291;53.960;27.550;2023-08-01T05:57:49;7.13;;;4.40;;
69183;SDS011;56291;53.960;27.550;2023-08-01T06:00:17;6.05;;;3.85;;
69183;SDS011;56291;53.960;27.550;2023-08-01T06:02:47;10.32;;;5.75;;
69183;SDS011;56291;53.960;27.550;2023-08-01T06:05:13;9.25;;;4.93;;
69183;SDS011;56291;53.960;27.550;2023-08-01T06:07:39;6.90;;;4.75;;
69183;SDS011;56291;53.960;27.550;2023-08-01T06:10:06;6.05;;;4.18;;
69183;SDS011;56291;53.960;27.550;2023-08-01T06:12:33;5.43;;;3.70;;
69183;SDS011;56291;53.960;27.550;2023-08-01T06:15:00;5.82;;;3.67;;
69183;SDS011;56291;53.960;27.550;2023-08-01T06:17:26;7.45;;;4.05;;
69183;SDS011;56291;53.960;27.550;2023-08-01T06:19:52;4.18;;;3.17;;
69183;SDS011;56291;53.960;27.550;2023-08-01T06:22:19;8.45;;;3.85;;
69183;SDS011;56291;53.960;27.550;2023-08-01T06:24:46;7.07;;;3.78;;
69183;SDS011;56291;53.960;27.550;2023-08-01T06:27:12;4.68;;;3.58;;
69183;SDS011;56291;53.960;27.550;2023-08-01T06:29:40;5.47;;;3.20;;
69183;SDS011;56291;53.960;27.550;2023-08-01T06:32:06;8.52;;;3.10;;
69183;SDS011;56291;53.960;27.550;2023-08-01T06:34:32;6.15;;;3.13;;
69183;SDS011;56291;53.960;27.550;2023-08-01T06:36:59;6.15;;;2.83;;
69183;SDS011;56291;53.960;27.550;2023-08-01T06:39:25;5.18;;;2.88;;
69183;SDS011;56291;53.960;27.550;2023-08-01T06:41:51;4.60;;;2.90;;
69183;SDS011;56291;53.960;27.550;2023-08-01T06:44:17;6.13;;;3.15;;
69183;SDS011;56291;53.960;27.550;2023-08-01T06:46:44;4.18;;;2.90;;
69183;SDS011;56291;53.960;27.550;2023-08-01T06:49:10;4.55;;;2.67;;
69183;SDS011;56291;53.960;27.550;2023-08-01T06:51:36;8.77;;;2.95;;
69183;SDS011;56291;53.960;27.550;2023-08-01T06:54:02;6.93;;;2.80;;
69183;SDS011;56291;53.960;27.550;2023-08-01T06:56:28;4.60;;;2.22;;
69183;SDS011;56291;53.960;27.550;2023-08-01T06:58:55;4.32;;;2.70;;
69183;SDS011;56291;53.960;27.550;2023-08-01T07:01:21;4.80;;;2.55;;
69183;SDS011;56291;53.960;27.550;2023-08-01T07:03:47;4.97;;;3.08;;
69183;SDS011;56291;53.960;27.550;2023-08-01T07:06:16;3.53;;;2.35;;
69183;SDS011;56291;53.960;27.550;2023-08-01T07:08:42;4.65;;;2.50;;
69183;SDS011;56291;53.960;27.550;2023-08-01T07:11:08;5.72;;;2.80;;
69183;SDS011;56291;53.960;27.550;2023-08-01T07:13:35;5.25;;;2.65;;
69183;SDS011;56291;53.960;27.550;2023-08-01T07:16:01;6.05;;;2.78;;
69183;SDS011;56291;53.960;27.550;2023-08-01T07:18:27;4.80;;;2.60;;
69183;SDS011;56291;53.960;27.550;2023-08-01T07:21:03;3.42;;;2.33;;
69183;SDS011;56291;53.960;27.550;2023-08-01T07:23:30;3.80;;;2.40;;
69183;SDS011;56291;53.960;27.550;2023-08-01T07:25:59;4.10;;;2.45;;
69183;SDS011;56291;53.960;27.550;2023-08-01T07:28:25;4.53;;;2.33;;
69183;SDS011;56291;53.960;27.550;2023-08-01T07:31:01;9.32;;;2.85;;
69183;SDS011;56291;53.960;27.550;2023-08-01T07:33:30;4.13;;;2.47;;
69183;SDS011;56291;53.960;27.550;2023-08-01T07:35:57;6.70;;;2.38;;
69183;SDS011;56291;53.960;27.550;2023-08-01T07:38:23;3.80;;;2.42;;
69183;SDS011;56291;53.960;27.550;2023-08-01T07:40:52;2.40;;;2.17;;
69183;SDS011;56291;53.960;27.550;2023-08-01T07:43:19;6.43;;;2.60;;
69183;SDS011;56291;53.960;27.550;2023-08-01T07:45:45;7.10;;;2.33;;
69183;SDS011;56291;53.960;27.550;2023-08-01T07:48:15;3.78;;;2.30;;
69183;SDS011;56291;53.960;27.550;2023-08-01T07:50:41;3.90;;;2.22;;
69183;SDS011;56291;53.960;27.550;2023-08-01T07:53:08;4.18;;;2.40;;
69183;SDS011;56291;53.960;27.550;2023-08-01T07:55:34;5.25;;;2.50;;
69183;SDS011;56291;53.960;27.550;2023-08-01T07:58:00;2.80;;;1.90;;
69183;SDS011;56291;53.960;27.550;2023-08-01T08:00:27;6.00;;;2.50;;
69183;SDS011;56291;53.960;27.550;2023-08-01T08:02:53;6.70;;;2.75;;
69183;SDS011;56291;53.960;27.550;2023-08-01T08:05:19;3.53;;;2.22;;
69183;SDS011;56291;53.960;27.550;2023-08-01T08:07:45;4.97;;;2.45;;
69183;SDS011;56291;53.960;27.550;2023-08-01T08:10:12;5.50;;;2.60;;
69183;SDS011;56291;53.960;27.550;2023-08-01T08:12:48;5.10;;;2.30;;
69183;SDS011;56291;53.960;27.550;2023-08-01T08:15:14;3.45;;;2.50;;
69183;SDS011;56291;53.960;27.550;2023-08-01T08:17:42;3.50;;;2.50;;
69183;SDS011;56291;53.960;27.550;2023-08-01T08:20:08;7.50;;;2.20;;
69183;SDS011;56291;53.960;27.550;2023-08-01T08:22:34;3.88;;;2.40;;
69183;SDS011;56291;53.960;27.550;2023-08-01T08:25:01;5.88;;;2.85;;
69183;SDS011;56291;53.960;27.550;2023-08-01T08:27:27;3.60;;;2.35;;
69183;SDS011;56291;53.960;27.550;2023-08-01T08:32:31;4.68;;;2.40;;
69183;SDS011;56291;53.960;27.550;2023-08-01T08:34:57;6.53;;;2.80;;
69183;SDS011;56291;53.960;27.550;2023-08-01T08:37:24;7.18;;;2.83;;
69183;SDS011;56291;53.960;27.550;2023-08-01T08:39:50;4.22;;;2.50;;
69183;SDS011;56291;53.960;27.550;2023-08-01T08:42:17;5.88;;;2.35;;
69183;SDS011;56291;53.960;27.550;2023-08-01T08:44:44;4.60;;;2.53;;
69183;SDS011;56291;53.960;27.550;2023-08-01T08:47:14;4.82;;;2.50;;
69183;SDS011;56291;53.960;27.550;2023-08-01T08:49:45;5.82;;;2.70;;
69183;SDS011;56291;53.960;27.550;2023-08-01T08:52:12;3.70;;;2.50;;
69183;SDS011;56291;53.960;27.550;2023-08-01T08:54:39;5.57;;;2.50;;
69183;SDS011;56291;53.960;27.550;2023-08-01T08:57:06;4.05;;;2.45;;
69183;SDS011;56291;53.960;27.550;2023-08-01T08:59:33;3.65;;;2.53;;
69183;SDS011;56291;53.960;27.550;2023-08-01T09:02:00;11.02;;;3.00;;
69183;SDS011;56291;53.960;27.550;2023-08-01T09:04:28;5.70;;;2.70;;
69183;SDS011;56291;53.960;27.550;2023-08-01T09:06:58;5.03;;;2.70;;
69183;SDS011;56291;53.960;27.550;2023-08-01T09:09:27;4.80;;;2.33;;
69183;SDS011;56291;53.960;27.550;2023-08-01T09:11:54;3.70;;;2.50;;
69183;SDS011;56291;53.960;27.550;2023-08-01T09:14:21;2.88;;;2.25;;
69183;SDS011;56291;53.960;27.550;2023-08-01T09:16:48;3.60;;;2.40;;
69183;SDS011;56291;53.960;27.550;2023-08-01T09:19:18;3.55;;;2.40;;
69183;SDS011;56291;53.960;27.550;2023-08-01T09:21:45;5.68;;;2.72;;
69183;SDS011;56291;53.960;27.550;2023-08-01T09:26:40;3.35;;;2.63;;
69183;SDS011;56291;53.960;27.550;2023-08-01T09:29:07;5.60;;;2.47;;
69183;SDS011;56291;53.960;27.550;2023-08-01T09:31:34;3.45;;;2.42;;
69183;SDS011;56291;53.960;27.550;2023-08-01T09:34:03;3.97;;;2.40;;
69183;SDS011;56291;53.960;27.550;2023-08-01T09:36:30;4.63;;;2.50;;
69183;SDS011;56291;53.960;27.550;2023-08-01T09:38:58;2.92;;;2.40;;
69183;SDS011;56291;53.960;27.550;2023-08-01T09:41:25;5.00;;;2.30;;
69183;SDS011;56291;53.960;27.550;2023-08-01T09:43:52;4.72;;;2.55;;
69183;SDS011;56291;53.960;27.550;2023-08-01T09:46:18;4.28;;;2.42;;
69183;SDS011;56291;53.960;27.550;2023-08-01T09:48:44;5.20;;;2.60;;
69183;SDS011;56291;53.960;27.550;2023-08-01T09:51:11;3.95;;;2.30;;
69183;SDS011;56291;53.960;27.550;2023-08-01T09:54:15;4.88;;;2.35;;
69183;SDS011;56291;53.960;27.550;2023-08-01T09:59:00;3.08;;;2.22;;
69183;SDS011;56291;53.960;27.550;2023-08-01T10:01:27;3.60;;;2.10;;
69183;SDS011;56291;53.960;27.550;2023-08-01T10:03:57;4.43;;;2.40;;
69183;SDS011;56291;53.960;27.550;2023-08-01T10:06:28;2.90;;;2.50;;
69183;SDS011;56291;53.960;27.550;2023-08-01T10:08:58;3.33;;;2.30;;
69183;SDS011;56291;53.960;27.550;2023-08-01T10:11:24;4.28;;;2.40;;
69183;SDS011;56291;53.960;27.550;2023-08-01T10:13:55;2.40;;;2.20;;
69183;SDS011;56291;53.960;27.550;2023-08-01T10:16:21;3.65;;;2.15;;
69183;SDS011;56291;53.960;27.550;2023-08-01T10:18:49;3.40;;;2.40;;
69183;SDS011;56291;53.960;27.550;2023-08-01T10:21:16;3.47;;;2.30;;
69183;SDS011;56291;53.960;27.550;2023-08-01T10:23:43;3.17;;;2.20;;
69183;SDS011;56291;53.960;27.550;2023-08-01T10:26:11;2.50;;;2.30;;
69183;SDS011;56291;53.960;27.550;2023-08-01T10:28:48;3.10;;;2.33;;
69183;SDS011;56291;53.960;27.550;2023-08-01T10:31:16;9.55;;;2.20;;
69183;SDS011;56291;53.960;27.550;2023-08-01T10:33:44;3.25;;;2.60;;
69183;SDS011;56291;53.960;27.550;2023-08-01T10:36:16;3.92;;;2.30;;
69183;SDS011;56291;53.960;27.550;2023-08-01T10:38:47;5.57;;;2.80;;
69183;SDS011;56291;53.960;27.550;2023-08-01T10:41:18;4.50;;;2.17;;
69183;SDS011;56291;53.960;27.550;2023-08-01T10:44:09;2.22;;;2.00;;
69183;SDS011;56291;53.960;27.550;2023-08-01T10:49:15;3.50;;;2.22;;
69183;SDS011;56291;53.960;27.550;2023-08-01T10:51:42;3.10;;;2.22;;
69183;SDS011;56291;53.960;27.550;2023-08-01T10:54:19;3.65;;;1.85;;
69183;SDS011;56291;53.960;27.550;2023-08-01T10:56:47;2.42;;;2.22;;
69183;SDS011;56291;53.960;27.550;2023-08-01T10:59:18;4.00;;;2.17;;
69183;SDS011;56291;53.960;27.550;2023-08-01T11:06:44;5.85;;;2.50;;
69183;SDS011;56291;53.960;27.550;2023-08-01T11:09:17;3.25;;;2.33;;
69183;SDS011;56291;53.960;27.550;2023-08-01T11:11:46;3.17;;;2.20;;
69183;SDS011;56291;53.960;27.550;2023-08-01T11:14:15;3.08;;;2.25;;
69183;SDS011;56291;53.960;27.550;2023-08-01T11:16:44;2.40;;;2.20;;
69183;SDS011;56291;53.960;27.550;2023-08-01T11:19:22;5.13;;;2.50;;
69183;SDS011;56291;53.960;27.550;2023-08-01T11:21:54;6.35;;;2.78;;
69183;SDS011;56291;53.960;27.550;2023-08-01T11:24:39;2.50;;;2.30;;
69183;SDS011;56291;53.960;27.550;2023-08-01T11:27:14;6.30;;;2.30;;
69183;SDS011;56291;53.960;27.550;2023-08-01T11:29:41;3.90;;;2.20;;
69183;SDS011;56291;53.960;27.550;2023-08-01T11:32:07;4.10;;;2.13;;
69183;SDS011;56291;53.960;27.550;2023-08-01T11:34:40;3.25;;;2.50;;
69183;SDS011;56291;53.960;27.550;2023-08-01T11:37:10;3.08;;;2.42;;
69183;SDS011;56291;53.960;27.550;2023-08-01T11:39:36;3.72;;;2.40;;
69183;SDS011;56291;53.960;27.550;2023-08-01T11:42:03;3.78;;;2.15;;
69183;SDS011;56291;53.960;27.550;2023-08-01T11:47:45;2.60;;;2.38;;
69183;SDS011;56291;53.960;27.550;2023-08-01T11:50:12;4.18;;;2.55;;
69183;SDS011;56291;53.960;27.550;2023-08-01T11:52:39;3.40;;;2.50;;
69183;SDS011;56291;53.960;27.550;2023-08-01T11:55:06;2.83;;;2.30;;
69183;SDS011;56291;53.960;27.550;2023-08-01T11:57:32;2.92;;;2.13;;
69183;SDS011;56291;53.960;27.550;2023-08-01T11:59:59;7.35;;;2.70;;
69183;SDS011;56291;53.960;27.550;2023-08-01T12:02:25;4.78;;;2.53;;
69183;SDS011;56291;53.960;27.550;2023-08-01T12:04:54;4.70;;;2.50;;
69183;SDS011;56291;53.960;27.550;2023-08-01T12:07:21;5.20;;;2.55;;
69183;SDS011;56291;53.960;27.550;2023-08-01T12:09:59;3.38;;;2.50;;
69183;SDS011;56291;53.960;27.550;2023-08-01T12:12:26;5.47;;;2.50;;
69183;SDS011;56291;53.960;27.550;2023-08-01T12:14:53;6.25;;;2.80;;
69183;SDS011;56291;53.960;27.550;2023-08-01T12:17:20;3.08;;;2.40;;
69183;SDS011;56291;53.960;27.550;2023-08-01T12:19:47;3.63;;;2.40;;
69183;SDS011;56291;53.960;27.550;2023-08-01T12:22:13;6.63;;;2.88;;
69183;SDS011;56291;53.960;27.550;2023-08-01T12:24:40;3.50;;;2.60;;
69183;SDS011;56291;53.960;27.550;2023-08-01T12:27:07;7.38;;;2.33;;
69183;SDS011;56291;53.960;27.550;2023-08-01T12:29:34;6.45;;;2.20;;
69183;SDS011;56291;53.960;27.550;2023-08-01T12:32:01;6.20;;;2.20;;
69183;SDS011;56291;53.960;27.550;2023-08-01T12:34:28;4.22;;;2.38;;
69183;SDS011;56291;53.960;27.550;2023-08-01T12:36:54;6.93;;;2.40;;
69183;SDS011;56291;53.960;27.550;2023-08-01T12:39:20;3.63;;;2.30;;
69183;SDS011;56291;53.960;27.550;2023-08-01T12:41:47;4.57;;;2.33;;
69183;SDS011;56291;53.960;27.550;2023-08-01T12:44:13;2.63;;;2.28;;
69183;SDS011;56291;53.960;27.550;2023-08-01T12:46:41;5.78;;;2.60;;
69183;SDS011;56291;53.960;27.550;2023-08-01T12:49:07;5.40;;;2.50;;
69183;SDS011;56291;53.960;27.550;2023-08-01T12:51:34;6.20;;;2.45;;
69183;SDS011;56291;53.960;27.550;2023-08-01T12:54:00;2.63;;;2.08;;
69183;SDS011;56291;53.960;27.550;2023-08-01T12:56:26;4.25;;;2.45;;
69183;SDS011;56291;53.960;27.550;2023-08-01T12:58:52;5.95;;;2.70;;
69183;SDS011;56291;53.960;27.550;2023-08-01T13:01:19;3.45;;;2.40;;
69183;SDS011;56291;53.960;27.550;2023-08-01T13:03:45;3.08;;;2.40;;
69183;SDS011;56291;53.960;27.550;2023-08-01T13:06:11;5.72;;;2.88;;
69183;SDS011;56291;53.960;27.550;2023-08-01T13:08:38;3.42;;;2.35;;
69183;SDS011;56291;53.960;27.550;2023-08-01T13:11:11;4.20;;;2.40;;
69183;SDS011;56291;53.960;27.550;2023-08-01T13:13:39;6.07;;;2.60;;
69183;SDS011;56291;53.960;27.550;2023-08-01T13:16:06;3.45;;;2.50;;
69183;SDS011;56291;53.960;27.550;2023-08-01T13:18:34;5.65;;;2.63;;
69183;SDS011;56291;53.960;27.550;2023-08-01T13:21:00;3.45;;;2.30;;
69183;SDS011;56291;53.960;27.550;2023-08-01T13:23:27;5.78;;;2.65;;
69183;SDS011;56291;53.960;27.550;2023-08-01T13:25:54;3.53;;;2.20;;
69183;SDS011;56291;53.960;27.550;2023-08-01T13:28:20;5.15;;;2.40;;
69183;SDS011;56291;53.960;27.550;2023-08-01T13:30:46;3.83;;;2.30;;
69183;SDS011;56291;53.960;27.550;2023-08-01T13:33:12;5.53;;;2.58;;
69183;SDS011;56291;53.960;27.550;2023-08-01T13:35:39;2.58;;;2.33;;
69183;SDS011;56291;53.960;27.550;2023-08-01T13:38:05;5.70;;;2.60;;
69183;SDS011;56291;53.960;27.550;2023-08-01T13:40:32;6.82;;;2.33;;
69183;SDS011;56291;53.960;27.550;2023-08-01T13:43:00;4.45;;;2.50;;
69183;SDS011;56291;53.960;27.550;2023-08-01T13:45:29;2.38;;;2.17;;
69183;SDS011;56291;53.960;27.550;2023-08-01T13:47:56;2.55;;;2.17;;
69183;SDS011;56291;53.960;27.550;2023-08-01T13:50:23;6.13;;;2.50;;
69183;SDS011;56291;53.960;27.550;2023-08-01T13:52:50;5.45;;;2.38;;
69183;SDS011;56291;53.960;27.550;2023-08-01T13:55:16;7.85;;;2.13;;
69183;SDS011;56291;53.960;27.550;2023-08-01T13:57:44;4.63;;;2.17;;
69183;SDS011;56291;53.960;27.550;2023-08-01T14:00:10;3.75;;;2.47;;
69183;SDS011;56291;53.960;27.550;2023-08-01T14:02:37;7.78;;;2.28;;
69183;SDS011;56291;53.960;27.550;2023-08-01T14:05:03;2.88;;;2.10;;
69183;SDS011;56291;53.960;27.550;2023-08-01T14:07:30;5.82;;;2.40;;
69183;SDS011;56291;53.960;27.550;2023-08-01T14:09:56;5.10;;;2.40;;
69183;SDS011;56291;53.960;27.550;2023-08-01T14:12:22;3.80;;;2.05;;
69183;SDS011;56291;53.960;27.550;2023-08-01T14:14:49;4.55;;;2.00;;
69183;SDS011;56291;53.960;27.550;2023-08-01T14:17:16;3.63;;;2.30;;
69183;SDS011;56291;53.960;27.550;2023-08-01T14:19:42;2.50;;;1.92;;
69183;SDS011;56291;53.960;27.550;2023-08-01T14:22:08;2.47;;;2.08;;
69183;SDS011;56291;53.960;27.550;2023-08-01T14:24:34;6.00;;;2.20;;
69183;SDS011;56291;53.960;27.550;2023-08-01T14:27:01;4.82;;;2.00;;
69183;SDS011;56291;53.960;27.550;2023-08-01T14:29:27;3.97;;;1.90;;
69183;SDS011;56291;53.960;27.550;2023-08-01T14:31:53;2.83;;;2.00;;
69183;SDS011;56291;53.960;27.550;2023-08-01T14:34:19;3.08;;;2.13;;
69183;SDS011;56291;53.960;27.550;2023-08-01T14:36:45;5.45;;;2.28;;
69183;SDS011;56291;53.960;27.550;2023-08-01T14:39:12;5.75;;;2.17;;
69183;SDS011;56291;53.960;27.550;2023-08-01T14:41:38;4.68;;;2.15;;
69183;SDS011;56291;53.960;27.550;2023-08-01T14:44:04;5.28;;;2.30;;
69183;SDS011;56291;53.960;27.550;2023-08-01T14:46:31;2.75;;;2.08;;
69183;SDS011;56291;53.960;27.550;2023-08-01T14:48:57;3.15;;;1.85;;
69183;SDS011;56291;53.960;27.550;2023-08-01T14:51:23;2.42;;;2.03;;
69183;SDS011;56291;53.960;27.550;2023-08-01T14:53:50;2.15;;;1.95;;
69183;SDS011;56291;53.960;27.550;2023-08-01T14:56:16;4.80;;;2.03;;
69183;SDS011;56291;53.960;27.550;2023-08-01T14:58:42;2.72;;;2.30;;
69183;SDS011;56291;53.960;27.550;2023-08-01T15:01:12;3.15;;;2.25;;
69183;SDS011;56291;53.960;27.550;2023-08-01T15:03:43;3.17;;;2.00;;
69183;SDS011;56291;53.960;27.550;2023-08-01T15:06:09;2.53;;;2.03;;
69183;SDS011;56291;53.960;27.550;2023-08-01T15:08:37;4.72;;;2.13;;
69183;SDS011;56291;53.960;27.550;2023-08-01T15:11:04;2.30;;;2.10;;
69183;SDS011;56291;53.960;27.550;2023-08-01T15:13:32;5.07;;;2.30;;
69183;SDS011;56291;53.960;27.550;2023-08-01T15:15:58;5.13;;;2.00;;
69183;SDS011;56291;53.960;27.550;2023-08-01T15:18:25;5.75;;;2.25;;
69183;SDS011;56291;53.960;27.550;2023-08-01T15:20:52;4.18;;;2.20;;
69183;SDS011;56291;53.960;27.550;2023-08-01T15:23:19;2.40;;;1.95;;
69183;SDS011;56291;53.960;27.550;2023-08-01T15:25:52;2.65;;;2.30;;
69183;SDS011;56291;53.960;27.550;2023-08-01T15:28:20;3.45;;;2.10;;
69183;SDS011;56291;53.960;27.550;2023-08-01T15:30:48;3.45;;;2.17;;
69183;SDS011;56291;53.960;27.550;2023-08-01T15:33:15;2.97;;;2.00;;
69183;SDS011;56291;53.960;27.550;2023-08-01T15:35:42;2.38;;;2.08;;
69183;SDS011;56291;53.960;27.550;2023-08-01T15:38:09;2.75;;;2.10;;
69183;SDS011;56291;53.960;27.550;2023-08-01T15:40:35;2.15;;;1.98;;
69183;SDS011;56291;53.960;27.550;2023-08-01T15:43:02;4.63;;;2.15;;
69183;SDS011;56291;53.960;27.550;2023-08-01T15:45:28;3.63;;;2.17;;
69183;SDS011;56291;53.960;27.550;2023-08-01T15:47:54;2.95;;;2.15;;
69183;SDS011;56291;53.960;27.550;2023-08-01T15:50:20;4.20;;;2.20;;
69183;SDS011;56291;53.960;27.550;2023-08-01T15:52:47;4.85;;;1.90;;
69183;SDS011;56291;53.960;27.550;2023-08-01T15:55:13;3.45;;;2.10;;
69183;SDS011;56291;53.960;27.550;2023-08-01T15:57:39;4.70;;;2.40;;
69183;SDS011;56291;53.960;27.550;2023-08-01T16:00:06;3.35;;;2.20;;
69183;SDS011;56291;53.960;27.550;2023-08-01T16:02:33;6.90;;;2.10;;
69183;SDS011;56291;53.960;27.550;2023-08-01T16:04:59;2.83;;;2.08;;
69183;SDS011;56291;53.960;27.550;2023-08-01T16:07:25;3.78;;;2.40;;
69183;SDS011;56291;53.960;27.550;2023-08-01T16:09:51;4.43;;;2.08;;
69183;SDS011;56291;53.960;27.550;2023-08-01T16:12:17;2.95;;;2.00;;
69183;SDS011;56291;53.960;27.550;2023-08-01T16:14:44;5.00;;;2.20;;
69183;SDS011;56291;53.960;27.550;2023-08-01T16:17:10;3.40;;;2.03;;
69183;SDS011;56291;53.960;27.550;2023-08-01T16:19:37;3.22;;;1.98;;
69183;SDS011;56291;53.960;27.550;2023-08-01T16:22:03;6.63;;;2.58;;
69183;SDS011;56291;53.960;27.550;2023-08-01T16:24:30;5.38;;;2.17;;
69183;SDS011;56291;53.960;27.550;2023-08-01T16:26:56;3.20;;;2.30;;
69183;SDS011;56291;53.960;27.550;2023-08-01T16:29:22;4.95;;;2.22;;
69183;SDS011;56291;53.960;27.550;2023-08-01T16:31:48;3.38;;;2.30;;
69183;SDS011;56291;53.960;27.550;2023-08-01T16:34:15;5.82;;;2.10;;
69183;SDS011;56291;53.960;27.550;2023-08-01T16:36:41;6.28;;;2.38;;
69183;SDS011;56291;53.960;27.550;2023-08-01T16:39:07;3.83;;;2.13;;
69183;SDS011;56291;53.960;27.550;2023-08-01T16:41:33;3.65;;;2.10;;
69183;SDS011;56291;53.960;27.550;2023-08-01T16:44:00;3.50;;;2.05;;
69183;SDS011;56291;53.960;27.550;2023-08-01T16:46:26;3.00;;;2.20;;
69183;SDS011;56291;53.960;27.550;2023-08-01T16:48:52;6.93;;;2.20;;
69183;SDS011;56291;53.960;27.550;2023-08-01T16:51:18;2.72;;;2.15;;